createdAt,value
2018-12-24T00:01:27.982Z,3.70
2018-12-24T00:04:31.013Z,3.70
2018-12-24T00:07:33.957Z,3.70
2018-12-24T00:10:36.902Z,3.60
2018-12-24T00:13:39.830Z,3.60
2018-12-24T00:16:42.797Z,3.60
2018-12-24T00:19:46.856Z,3.60
2018-12-24T00:22:50.214Z,3.50
2018-12-24T00:26:26.672Z,3.50
2018-12-24T00:29:29.475Z,3.40
2018-12-24T00:32:32.251Z,3.40
2018-12-24T00:35:35.163Z,3.30
2018-12-24T00:38:37.977Z,3.20
2018-12-24T00:41:40.794Z,3.20
2018-12-24T00:44:44.052Z,3.20
2018-12-24T00:47:46.883Z,3.10
2018-12-24T00:50:49.724Z,3.10
2018-12-24T00:53:52.515Z,3.10
2018-12-24T00:56:55.335Z,3.10
2018-12-24T00:59:58.124Z,3.10
2018-12-24T01:03:00.954Z,3.10
2018-12-24T01:06:03.930Z,3.10
2018-12-24T01:09:06.755Z,3.10
2018-12-24T01:12:09.590Z,3.10
2018-12-24T01:15:12.367Z,3.00
2018-12-24T01:18:15.188Z,3.00
2018-12-24T01:21:17.975Z,3.00
2018-12-24T01:24:20.761Z,3.00
2018-12-24T01:28:04.662Z,2.90
2018-12-24T01:31:26.243Z,2.90
2018-12-24T01:34:29.034Z,3.00
2018-12-24T01:37:31.816Z,3.00
2018-12-24T01:40:34.611Z,3.00
2018-12-24T01:43:37.436Z,3.00
2018-12-24T01:46:40.226Z,2.90
2018-12-24T01:49:43.074Z,3.00
2018-12-24T01:52:45.851Z,2.90
2018-12-24T01:55:48.642Z,2.90
2018-12-24T01:58:52.545Z,2.80
2018-12-24T02:01:55.335Z,2.80
2018-12-24T02:04:58.128Z,2.90
2018-12-24T02:08:00.947Z,2.90
2018-12-24T02:11:03.807Z,2.90
2018-12-24T02:14:06.596Z,2.90
2018-12-24T02:17:09.391Z,2.90
2018-12-24T02:20:12.192Z,2.90
2018-12-24T02:23:15.072Z,2.90
2018-12-24T02:26:17.868Z,2.90
2018-12-24T02:29:20.751Z,2.90
2018-12-24T02:32:23.539Z,2.90
2018-12-24T02:35:26.343Z,3.00
2018-12-24T02:38:29.131Z,3.00
2018-12-24T02:41:31.908Z,3.00
2018-12-24T02:44:34.738Z,3.00
2018-12-24T02:47:37.535Z,2.90
2018-12-24T02:50:40.315Z,2.90
2018-12-24T02:53:43.113Z,2.90
2018-12-24T02:56:45.892Z,2.90
2018-12-24T02:59:48.684Z,2.90
2018-12-24T03:02:51.465Z,2.80
2018-12-24T03:05:54.281Z,2.80
2018-12-24T03:08:57.071Z,2.80
2018-12-24T03:11:59.887Z,2.70
2018-12-24T03:15:02.744Z,2.70
2018-12-24T03:18:05.971Z,2.60
2018-12-24T03:21:08.795Z,2.50
2018-12-24T03:24:11.587Z,2.50
2018-12-24T03:27:14.420Z,2.50
2018-12-24T03:30:17.209Z,2.40
2018-12-24T03:33:20.045Z,2.30
2018-12-24T03:36:23.924Z,2.30
2018-12-24T03:39:26.751Z,2.10
2018-12-24T03:42:29.798Z,2.30
2018-12-24T03:45:32.584Z,2.30
2018-12-24T03:48:35.456Z,2.20
2018-12-24T03:51:38.264Z,2.20
2018-12-24T03:54:41.096Z,2.20
2018-12-24T03:57:43.871Z,2.20
2018-12-24T04:00:46.699Z,2.20
2018-12-24T04:03:49.498Z,2.10
2018-12-24T04:06:52.807Z,2.10
2018-12-24T04:09:55.966Z,2.00
2018-12-24T04:12:59.090Z,2.00
2018-12-24T04:16:02.535Z,2.00
2018-12-24T04:19:05.653Z,1.90
2018-12-24T04:22:09.028Z,1.80
2018-12-24T04:25:12.072Z,1.80
2018-12-24T04:28:15.316Z,1.80
2018-12-24T04:31:18.370Z,1.80
2018-12-24T04:34:21.593Z,1.80
2018-12-24T04:37:24.651Z,1.70
2018-12-24T04:40:27.752Z,1.80
2018-12-24T04:43:32.311Z,1.80
2018-12-24T04:46:35.777Z,1.70
2018-12-24T04:49:39.015Z,1.80
2018-12-24T04:52:42.061Z,1.70
2018-12-24T04:55:45.187Z,1.70
2018-12-24T04:58:48.548Z,1.70
2018-12-24T05:01:51.652Z,1.70
2018-12-24T05:04:54.734Z,1.70
2018-12-24T05:07:57.831Z,1.70
2018-12-24T05:11:01.022Z,1.70
2018-12-24T05:14:04.123Z,1.70
2018-12-24T05:17:07.427Z,1.60
2018-12-24T05:20:10.607Z,1.60
2018-12-24T05:23:13.702Z,1.60
2018-12-24T05:26:16.896Z,1.50
2018-12-24T05:29:19.990Z,1.40
2018-12-24T05:32:23.083Z,1.30
2018-12-24T05:35:26.295Z,1.20
2018-12-24T05:38:29.374Z,1.10
2018-12-24T05:41:32.566Z,1.00
2018-12-24T05:44:35.759Z,0.90
2018-12-24T05:47:38.854Z,0.90
2018-12-24T05:50:42.050Z,0.80
2018-12-24T05:53:45.243Z,0.80
2018-12-24T05:56:49.478Z,0.80
2018-12-24T05:59:52.660Z,0.80
2018-12-24T06:02:55.975Z,0.90
2018-12-24T06:05:59.112Z,0.90
2018-12-24T06:09:03.652Z,0.90
2018-12-24T06:12:06.771Z,1.00
2018-12-24T06:15:09.863Z,1.00
2018-12-24T06:18:12.962Z,1.00
2018-12-24T06:21:16.153Z,1.00
2018-12-24T06:24:19.343Z,1.00
2018-12-24T06:27:22.543Z,1.00
2018-12-24T06:30:25.634Z,0.90
2018-12-24T06:33:28.726Z,0.90
2018-12-24T06:36:31.818Z,0.90
2018-12-24T06:39:34.942Z,0.70
2018-12-24T06:42:38.118Z,0.70
2018-12-24T06:45:41.303Z,0.70
2018-12-24T06:48:44.427Z,0.70
2018-12-24T06:51:47.587Z,0.70
2018-12-24T06:54:50.715Z,0.70
2018-12-24T06:57:53.877Z,0.70
2018-12-24T07:00:57.002Z,0.80
2018-12-24T07:04:00.163Z,0.70
2018-12-24T07:07:03.291Z,0.70
2018-12-24T07:10:06.554Z,0.60
2018-12-24T07:13:09.651Z,0.60
2018-12-24T07:16:12.923Z,0.60
2018-12-24T07:19:16.246Z,0.50
2018-12-24T07:22:19.366Z,0.50
2018-12-24T07:25:22.573Z,0.50
2018-12-24T07:28:25.663Z,0.60
2018-12-24T07:31:28.714Z,0.50
2018-12-24T07:34:32.653Z,0.50
2018-12-24T07:37:36.071Z,0.50
2018-12-24T07:40:39.119Z,0.60
2018-12-24T07:43:42.255Z,0.60
2018-12-24T07:46:46.334Z,0.60
2018-12-24T07:49:49.455Z,0.60
2018-12-24T07:52:52.715Z,0.60
2018-12-24T07:55:55.936Z,0.50
2018-12-24T07:58:59.118Z,0.50
2018-12-24T08:02:02.445Z,0.50
2018-12-24T08:05:05.534Z,0.50
2018-12-24T08:08:08.599Z,0.50
2018-12-24T08:11:11.718Z,0.40
2018-12-24T08:14:14.883Z,0.50
2018-12-24T08:17:17.974Z,0.40
2018-12-24T08:20:21.067Z,0.50
2018-12-24T08:23:24.269Z,0.50
2018-12-24T08:26:27.358Z,0.50
2018-12-24T08:29:30.570Z,0.50
2018-12-24T08:32:33.644Z,0.60
2018-12-24T08:35:36.840Z,0.50
2018-12-24T08:38:40.031Z,0.50
2018-12-24T08:41:43.131Z,0.50
2018-12-24T08:44:46.215Z,0.50
2018-12-24T08:47:49.311Z,0.50
2018-12-24T08:50:52.655Z,0.50
2018-12-24T08:53:55.703Z,0.60
2018-12-24T08:56:58.827Z,0.50
2018-12-24T09:00:01.992Z,0.60
2018-12-24T09:03:05.094Z,0.60
2018-12-24T09:06:08.179Z,0.60
2018-12-24T09:09:11.266Z,0.50
2018-12-24T09:12:14.361Z,0.50
2018-12-24T09:15:17.459Z,0.60
2018-12-24T09:18:20.580Z,0.60
2018-12-24T09:21:23.635Z,0.60
2018-12-24T09:24:26.839Z,0.60
2018-12-24T09:27:29.991Z,0.60
2018-12-24T09:30:35.455Z,0.60
2018-12-24T09:33:38.673Z,0.60
2018-12-24T09:36:41.770Z,0.70
2018-12-24T09:39:45.007Z,0.70
2018-12-24T09:42:48.055Z,0.70
2018-12-24T09:45:51.151Z,0.70
2018-12-24T09:48:54.235Z,0.70
2018-12-24T09:51:57.330Z,0.70
2018-12-24T09:55:00.423Z,0.70
2018-12-24T09:58:03.519Z,0.80
2018-12-24T10:01:06.613Z,0.80
2018-12-24T10:04:35.205Z,0.80
2018-12-24T10:07:40.391Z,0.80
2018-12-24T10:10:43.345Z,0.80
2018-12-24T10:13:46.127Z,0.80
2018-12-24T10:16:48.914Z,0.90
2018-12-24T10:19:51.703Z,0.90
2018-12-24T10:22:54.611Z,0.80
2018-12-24T10:25:57.408Z,0.90
2018-12-24T10:29:00.338Z,0.90
2018-12-24T10:32:03.123Z,0.90
2018-12-24T10:35:05.942Z,0.80
2018-12-24T10:38:08.723Z,0.90
2018-12-24T10:41:19.181Z,0.80
2018-12-24T10:44:21.967Z,0.80
2018-12-24T10:47:24.773Z,0.80
2018-12-24T10:50:27.547Z,0.80
2018-12-24T10:53:30.335Z,0.80
2018-12-24T10:56:33.177Z,0.90
2018-12-24T10:59:35.939Z,0.90
2018-12-24T11:02:38.760Z,1.00
2018-12-24T11:05:41.539Z,1.00
2018-12-24T11:08:44.390Z,0.90
2018-12-24T11:11:47.423Z,0.90
2018-12-24T11:14:50.243Z,0.90
2018-12-24T11:17:53.031Z,0.90
2018-12-24T11:20:56.083Z,0.90
2018-12-24T11:23:58.915Z,0.90
2018-12-24T11:27:01.736Z,1.00
2018-12-24T11:30:05.475Z,1.00
2018-12-24T11:33:08.313Z,1.00
2018-12-24T11:36:11.091Z,1.00
2018-12-24T11:39:13.997Z,1.00
2018-12-24T11:42:16.791Z,1.00
2018-12-24T11:45:19.634Z,1.00
2018-12-24T11:48:22.458Z,1.10
2018-12-24T11:51:25.246Z,1.10
2018-12-24T11:54:28.123Z,1.10
2018-12-24T11:57:31.022Z,1.10
2018-12-24T12:00:33.968Z,1.10
2018-12-24T12:03:36.757Z,1.10
2018-12-24T12:06:43.094Z,1.10
2018-12-24T12:09:52.595Z,1.20
2018-12-24T12:12:55.406Z,1.20
2018-12-24T12:15:58.215Z,1.10
2018-12-24T12:19:01.001Z,1.20
2018-12-24T12:22:03.799Z,1.20
2018-12-24T12:25:06.596Z,1.20
2018-12-24T12:28:09.478Z,1.20
2018-12-24T12:31:12.262Z,1.20
2018-12-24T12:34:15.161Z,1.30
2018-12-24T12:37:17.967Z,1.30
2018-12-24T12:40:20.826Z,1.20
2018-12-24T12:43:23.615Z,1.30
2018-12-24T12:46:26.416Z,1.30
2018-12-24T12:49:29.198Z,1.30
2018-12-24T12:52:32.118Z,1.30
2018-12-24T12:55:34.912Z,1.30
2018-12-24T12:58:37.712Z,1.40
2018-12-24T13:01:40.593Z,1.30
2018-12-24T13:04:43.390Z,1.30
2018-12-24T13:07:46.290Z,1.30
2018-12-24T13:10:49.130Z,1.30
2018-12-24T13:13:51.987Z,1.30
2018-12-24T13:16:54.771Z,1.30
2018-12-24T13:19:57.587Z,1.30
2018-12-24T13:23:00.406Z,1.30
2018-12-24T13:26:03.375Z,1.30
2018-12-24T13:29:06.228Z,1.30
2018-12-24T13:32:09.055Z,1.30
2018-12-24T13:35:11.836Z,1.30
2018-12-24T13:38:14.652Z,1.30
2018-12-24T13:41:17.499Z,1.30
2018-12-24T13:44:20.293Z,1.20
2018-12-24T13:47:23.149Z,1.30
2018-12-24T13:50:25.936Z,1.30
2018-12-24T13:53:28.854Z,1.30
2018-12-24T13:56:31.675Z,1.30
2018-12-24T13:59:34.609Z,1.30
2018-12-24T14:02:37.511Z,1.30
2018-12-24T14:05:40.298Z,1.30
2018-12-24T14:08:43.146Z,1.30
2018-12-24T14:11:45.936Z,1.30
2018-12-24T14:14:48.778Z,1.30
2018-12-24T14:17:51.567Z,1.30
2018-12-24T14:20:54.432Z,1.30
2018-12-24T14:23:57.215Z,1.30
2018-12-24T14:27:00.103Z,1.30
2018-12-24T14:30:03.118Z,1.30
2018-12-24T14:33:06.038Z,1.30
2018-12-24T14:36:08.931Z,1.30
2018-12-24T14:39:11.759Z,1.20
2018-12-24T14:42:14.543Z,1.20
2018-12-24T14:45:17.421Z,1.20
2018-12-24T14:48:20.211Z,1.20
2018-12-24T14:51:23.034Z,1.20
2018-12-24T14:54:25.815Z,1.10
2018-12-24T14:57:28.636Z,1.10
2018-12-24T15:00:31.728Z,1.10
2018-12-24T15:03:34.519Z,1.00
2018-12-24T15:06:37.311Z,1.10
2018-12-24T15:09:40.103Z,1.10
2018-12-24T15:12:42.882Z,1.00
2018-12-24T15:15:45.683Z,1.00
2018-12-24T15:18:48.584Z,1.00
2018-12-24T15:21:51.364Z,1.00
2018-12-24T15:24:54.163Z,1.00
2018-12-24T15:27:56.955Z,1.00
2018-12-24T15:30:59.733Z,1.00
2018-12-24T15:34:02.571Z,1.00
2018-12-24T15:37:06.539Z,1.00
2018-12-24T15:40:09.340Z,1.00
2018-12-24T15:43:12.128Z,1.10
2018-12-24T15:46:14.922Z,1.00
2018-12-24T15:49:17.731Z,1.10
2018-12-24T15:52:20.539Z,1.10
2018-12-24T15:55:23.335Z,1.00
2018-12-24T15:58:26.134Z,1.10
2018-12-24T16:01:28.931Z,1.10
2018-12-24T16:04:31.739Z,1.10
2018-12-24T16:07:34.851Z,1.00
2018-12-24T16:10:37.957Z,1.10
2018-12-24T16:13:41.034Z,1.10
2018-12-24T16:16:50.923Z,1.10
2018-12-24T16:19:49.307Z,1.10
2018-12-24T16:22:52.395Z,1.10
2018-12-24T16:25:55.503Z,1.10
2018-12-24T16:28:58.651Z,1.10
2018-12-24T16:32:01.779Z,1.10
2018-12-24T16:35:04.947Z,1.10
2018-12-24T16:38:08.067Z,1.00
2018-12-24T16:41:11.126Z,1.10
2018-12-24T16:44:14.225Z,1.10
2018-12-24T16:47:17.383Z,1.10
2018-12-24T16:50:21.014Z,1.10
2018-12-24T16:53:24.254Z,1.10
2018-12-24T16:56:27.507Z,1.10
2018-12-24T16:59:30.735Z,1.10
2018-12-24T17:02:33.796Z,1.10
2018-12-24T17:05:37.022Z,1.10
2018-12-24T17:08:40.187Z,1.10
2018-12-24T17:11:43.283Z,1.20
2018-12-24T17:14:46.416Z,1.10
2018-12-24T17:17:49.464Z,1.10
2018-12-24T17:20:52.599Z,1.20
2018-12-24T17:23:55.747Z,1.10
2018-12-24T17:26:58.879Z,1.20
2018-12-24T17:30:01.947Z,1.20
2018-12-24T17:33:05.034Z,1.20
2018-12-24T17:36:08.194Z,1.20
2018-12-24T17:39:13.747Z,1.20
2018-12-24T17:42:16.999Z,1.30
2018-12-24T17:45:20.068Z,1.30
2018-12-24T17:48:23.191Z,1.30
2018-12-24T17:51:26.454Z,1.30
2018-12-24T17:54:29.551Z,1.30
2018-12-24T17:57:32.640Z,1.30
2018-12-24T18:00:35.835Z,1.40
2018-12-24T18:03:38.963Z,1.40
2018-12-24T18:06:42.119Z,1.40
2018-12-24T18:09:45.257Z,1.40
2018-12-24T18:12:48.319Z,1.50
2018-12-24T18:15:51.441Z,1.50
2018-12-24T18:18:54.496Z,1.50
2018-12-24T18:21:57.599Z,1.50
2018-12-24T18:25:00.679Z,1.40
2018-12-24T18:28:03.771Z,1.50
2018-12-24T18:31:06.912Z,1.40
2018-12-24T18:34:09.959Z,1.40
2018-12-24T18:37:13.083Z,1.30
2018-12-24T18:40:16.243Z,1.40
2018-12-24T18:43:19.339Z,1.40
2018-12-24T18:46:22.535Z,1.40
2018-12-24T18:49:25.628Z,1.40
2018-12-24T18:52:28.718Z,1.40
2018-12-24T18:55:31.815Z,1.40
2018-12-24T18:58:34.902Z,1.50
2018-12-24T19:01:38.095Z,1.50
2018-12-24T19:04:41.466Z,1.60
2018-12-24T19:07:44.596Z,1.60
2018-12-24T19:10:47.786Z,1.60
2018-12-24T19:13:50.878Z,1.60
2018-12-24T19:16:54.075Z,1.60
2018-12-24T19:19:57.167Z,1.60
2018-12-24T19:23:00.262Z,1.70
2018-12-24T19:26:03.351Z,1.70
2018-12-24T19:29:06.451Z,1.70
2018-12-24T19:32:09.539Z,1.70
2018-12-24T19:35:12.735Z,1.70
2018-12-24T19:38:15.830Z,1.70
2018-12-24T19:41:18.927Z,1.80
2018-12-24T19:44:22.112Z,1.80
2018-12-24T19:47:25.311Z,1.80
2018-12-24T19:50:28.503Z,1.90
2018-12-24T19:53:31.699Z,1.90
2018-12-24T19:56:34.792Z,1.90
2018-12-24T19:59:39.579Z,1.90
2018-12-24T20:02:42.719Z,1.90
2018-12-24T20:05:45.819Z,1.90
2018-12-24T20:08:49.007Z,1.90
2018-12-24T20:11:52.106Z,2.00
2018-12-24T20:14:55.295Z,2.00
2018-12-24T20:17:58.593Z,2.00
2018-12-24T20:21:01.791Z,2.20
2018-12-24T20:24:04.882Z,2.10
2018-12-24T20:27:08.142Z,2.00
2018-12-24T20:30:11.374Z,2.10
2018-12-24T20:33:14.503Z,2.10
2018-12-24T20:36:17.699Z,2.10
2018-12-24T20:39:20.755Z,2.00
2018-12-24T20:42:23.879Z,2.00
2018-12-24T20:45:27.083Z,2.00
2018-12-24T20:48:30.176Z,2.10
2018-12-24T20:51:33.327Z,2.00
2018-12-24T20:54:38.536Z,2.10
2018-12-24T20:57:41.475Z,2.10
2018-12-24T21:00:44.655Z,2.10
2018-12-24T21:03:47.880Z,2.10
2018-12-24T21:06:50.942Z,2.10
2018-12-24T21:09:54.072Z,2.10
2018-12-24T21:12:57.341Z,2.10
2018-12-24T21:16:00.459Z,2.10
2018-12-24T21:19:03.555Z,2.10
2018-12-24T21:22:08.527Z,2.10
2018-12-24T21:25:11.683Z,2.10
2018-12-24T21:28:14.742Z,2.10
2018-12-24T21:31:17.971Z,2.10
2018-12-24T21:34:21.031Z,2.10
2018-12-24T21:37:24.275Z,2.10
2018-12-24T21:40:27.323Z,2.00
2018-12-24T21:43:30.662Z,2.00
2018-12-24T21:46:33.707Z,2.00
2018-12-24T21:49:36.835Z,1.90
2018-12-24T21:52:39.897Z,2.00
2018-12-24T21:55:43.018Z,2.00
2018-12-24T21:58:46.079Z,2.00
2018-12-24T22:01:49.178Z,2.10
2018-12-24T22:04:52.306Z,2.00
2018-12-24T22:07:55.627Z,2.00
2018-12-24T22:10:59.184Z,1.90
2018-12-24T22:14:02.256Z,1.90
2018-12-24T22:17:05.226Z,1.90
2018-12-24T22:20:08.121Z,1.90
2018-12-24T22:23:10.973Z,2.00
2018-12-24T22:26:13.793Z,2.00
2018-12-24T22:29:17.829Z,1.90
2018-12-24T22:32:20.642Z,1.90
2018-12-24T22:35:23.608Z,1.90
2018-12-24T22:38:26.809Z,1.80
2018-12-24T22:41:29.674Z,1.80
2018-12-24T22:44:32.484Z,1.80
2018-12-24T22:47:35.306Z,1.80
2018-12-24T22:50:38.121Z,1.90
2018-12-24T22:53:41.549Z,1.90
2018-12-24T22:56:44.504Z,2.00
2018-12-24T22:59:48.043Z,2.00
2018-12-24T23:02:50.964Z,2.10
2018-12-24T23:05:53.796Z,2.00
2018-12-24T23:08:57.511Z,2.20
2018-12-24T23:12:00.326Z,2.20
2018-12-24T23:15:03.291Z,2.20
2018-12-24T23:18:06.293Z,2.30
2018-12-24T23:21:09.087Z,2.40
2018-12-24T23:24:11.892Z,2.40
2018-12-24T23:27:14.706Z,2.50
2018-12-24T23:30:17.599Z,2.60
2018-12-24T23:33:20.407Z,2.60
2018-12-24T23:36:23.212Z,2.60
2018-12-24T23:39:25.999Z,2.60
2018-12-24T23:42:28.852Z,2.60
2018-12-24T23:45:31.652Z,2.70
2018-12-24T23:48:34.691Z,2.70
2018-12-24T23:51:37.504Z,2.80
2018-12-24T23:54:40.310Z,2.90
2018-12-24T23:57:43.091Z,2.90
